createdAt,value
2022-08-31T00:00:37.772Z,30.40
2022-08-31T00:03:23.780Z,30.30
2022-08-31T00:05:56.565Z,30.30
2022-08-31T00:08:25.117Z,30.30
2022-08-31T00:10:55.268Z,30.20
2022-08-31T00:13:23.510Z,30.10
2022-08-31T00:15:55.369Z,30.00
2022-08-31T00:18:23.768Z,30.00
2022-08-31T00:20:52.053Z,30.00
2022-08-31T00:23:20.367Z,29.60
2022-08-31T00:25:49.661Z,29.60
2022-08-31T00:28:18.732Z,29.60
2022-08-31T00:30:49.454Z,29.60
2022-08-31T00:33:19.628Z,29.30
2022-08-31T00:35:47.987Z,29.20
2022-08-31T00:38:16.168Z,29.10
2022-08-31T00:40:46.888Z,28.90
2022-08-31T00:43:37.393Z,29.10
2022-08-31T00:46:06.005Z,29.20
2022-08-31T00:48:36.372Z,29.30
2022-08-31T00:51:05.283Z,29.40
2022-08-31T00:53:33.377Z,29.40
2022-08-31T00:56:01.493Z,29.30
2022-08-31T00:58:29.523Z,29.10
2022-08-31T01:00:59.035Z,29.30
2022-08-31T01:03:27.449Z,29.30
2022-08-31T01:05:56.956Z,29.20
2022-08-31T01:08:30.512Z,29.30
2022-08-31T01:11:00.474Z,29.40
2022-08-31T01:13:30.621Z,29.30
2022-08-31T01:16:02.813Z,29.20
2022-08-31T01:18:32.525Z,28.70
2022-08-31T01:21:12.312Z,28.40
2022-08-31T01:23:47.147Z,28.60
2022-08-31T01:26:18.546Z,28.20
2022-08-31T01:28:48.724Z,28.30
2022-08-31T01:31:21.558Z,28.20
2022-08-31T01:33:50.075Z,28.50
2022-08-31T01:36:18.740Z,28.70
2022-08-31T01:38:51.068Z,28.10
2022-08-31T01:41:22.151Z,28.00
2022-08-31T01:43:50.940Z,27.90
2022-08-31T01:46:19.003Z,27.80
2022-08-31T01:48:48.463Z,27.80
2022-08-31T01:51:19.266Z,28.00
2022-08-31T01:53:54.623Z,28.20
2022-08-31T01:56:25.379Z,28.10
2022-08-31T01:58:54.516Z,28.20
2022-08-31T02:01:44.281Z,28.40
2022-08-31T02:04:14.492Z,28.70
2022-08-31T02:06:45.495Z,28.70
2022-08-31T02:09:15.344Z,28.50
2022-08-31T02:11:43.896Z,28.70
2022-08-31T02:14:13.437Z,28.70
2022-08-31T02:16:42.209Z,28.70
2022-08-31T02:19:10.513Z,28.90
2022-08-31T02:21:42.791Z,29.00
2022-08-31T02:24:12.396Z,29.00
2022-08-31T02:26:42.168Z,29.10
2022-08-31T02:29:10.260Z,29.20
2022-08-31T02:31:38.344Z,29.20
2022-08-31T02:34:06.531Z,29.10
2022-08-31T02:36:35.941Z,29.10
2022-08-31T02:39:06.555Z,29.10
2022-08-31T02:41:38.609Z,29.20
2022-08-31T02:44:08.000Z,29.00
2022-08-31T02:46:36.279Z,28.80
2022-08-31T02:49:24.705Z,28.90
2022-08-31T02:51:55.352Z,28.90
2022-08-31T02:54:23.704Z,28.70
2022-08-31T02:56:53.263Z,28.40
2022-08-31T02:59:22.749Z,28.50
2022-08-31T03:01:54.215Z,28.80
2022-08-31T03:04:22.534Z,28.80
2022-08-31T03:06:50.713Z,28.90
2022-08-31T03:09:19.379Z,29.00
2022-08-31T03:11:47.466Z,29.10
2022-08-31T03:14:15.493Z,29.30
2022-08-31T03:16:45.866Z,29.30
2022-08-31T03:19:13.887Z,29.40
2022-08-31T03:21:42.241Z,29.40
2022-08-31T03:24:10.426Z,29.60
2022-08-31T03:26:39.004Z,29.60
2022-08-31T03:29:07.259Z,29.70
2022-08-31T03:31:56.580Z,29.70
2022-08-31T03:34:26.416Z,29.80
2022-08-31T03:36:54.399Z,29.80
2022-08-31T05:46:52.344Z,32.60
2022-08-31T05:49:27.912Z,32.80
2022-08-31T05:51:57.226Z,32.60
2022-08-31T05:54:56.829Z,32.60
2022-08-31T05:57:26.871Z,32.60
2022-08-31T05:59:58.722Z,32.70
2022-08-31T06:02:29.429Z,32.60
2022-08-31T06:04:58.782Z,32.50
2022-08-31T06:07:27.262Z,32.40
2022-08-31T06:10:01.318Z,32.20
2022-08-31T06:12:32.126Z,32.10
2022-08-31T06:15:01.388Z,32.10
2022-08-31T06:17:30.782Z,32.20
2022-08-31T06:19:58.901Z,32.10
2022-08-31T06:22:27.300Z,32.00
2022-08-31T06:24:57.225Z,31.90
2022-08-31T06:27:26.543Z,32.10
2022-08-31T06:29:57.928Z,32.10
2022-08-31T06:32:26.193Z,31.90
2022-08-31T06:35:05.528Z,31.90
2022-08-31T06:37:53.089Z,31.70
2022-08-31T06:40:42.758Z,31.80
2022-08-31T06:43:29.783Z,31.60
2022-08-31T06:46:00.668Z,31.70
2022-08-31T06:49:04.782Z,31.60
2022-08-31T06:51:38.083Z,31.40
2022-08-31T06:54:28.018Z,31.30
2022-08-31T06:57:28.452Z,31.40
2022-08-31T07:00:16.963Z,31.40
2022-08-31T07:02:52.965Z,31.40
2022-08-31T07:05:25.565Z,31.60
2022-08-31T07:07:56.281Z,31.60
2022-08-31T07:10:24.493Z,31.50
2022-08-31T07:12:52.719Z,31.50
2022-08-31T07:15:20.783Z,31.30
2022-08-31T07:17:49.835Z,31.40
2022-08-31T07:20:18.167Z,31.30
2022-08-31T07:22:46.603Z,31.40
2022-08-31T07:25:32.036Z,31.20
2022-08-31T07:28:02.035Z,31.30
2022-08-31T07:30:33.401Z,31.20
2022-08-31T07:33:04.218Z,31.30
2022-08-31T07:35:34.757Z,31.40
2022-08-31T07:38:42.649Z,31.60
2022-08-31T07:41:30.660Z,31.70
2022-08-31T07:43:59.859Z,31.90
2022-08-31T07:46:30.087Z,31.90
2022-08-31T07:48:59.555Z,32.00
2022-08-31T07:51:51.679Z,32.10
2022-08-31T07:54:29.347Z,32.10
2022-08-31T07:57:06.122Z,32.20
2022-08-31T07:59:39.819Z,32.30
2022-08-31T08:02:11.082Z,32.40
2022-08-31T08:04:44.170Z,32.50
2022-08-31T08:07:33.942Z,32.60
2022-08-31T08:10:33.506Z,32.80
2022-08-31T08:13:27.331Z,32.90
2022-08-31T08:16:04.419Z,32.90
2022-08-31T08:18:56.808Z,32.90
2022-08-31T08:21:29.148Z,33.00
2022-08-31T08:23:57.961Z,33.20
2022-08-31T08:26:58.513Z,33.10
2022-08-31T08:29:49.039Z,33.30
2022-08-31T08:32:23.694Z,33.30
2022-08-31T08:34:52.159Z,33.30
2022-08-31T08:37:41.127Z,33.10
2022-08-31T08:40:22.841Z,33.20
2022-08-31T08:42:54.452Z,33.30
2022-08-31T08:45:24.560Z,32.80
2022-08-31T08:47:56.948Z,32.70
2022-08-31T08:50:30.364Z,32.90
2022-08-31T08:53:03.691Z,33.10
2022-08-31T08:55:38.115Z,33.00
2022-08-31T08:58:10.390Z,33.10
2022-08-31T09:00:46.538Z,32.90
2022-08-31T09:03:22.607Z,32.90
2022-08-31T09:06:11.720Z,32.80
2022-08-31T09:09:22.538Z,32.40
2022-08-31T09:12:05.000Z,32.40
2022-08-31T09:14:47.627Z,32.60
2022-08-31T09:17:31.498Z,32.40
2022-08-31T09:20:00.286Z,32.40
2022-08-31T09:22:30.446Z,32.60
2022-08-31T09:25:00.333Z,32.50
2022-08-31T09:27:57.231Z,32.50
2022-08-31T09:30:50.715Z,32.60
2022-08-31T09:33:25.394Z,32.50
2022-08-31T09:35:56.764Z,32.50
2022-08-31T09:38:30.685Z,32.50
2022-08-31T09:40:59.916Z,32.60
2022-08-31T09:43:35.064Z,32.60
2022-08-31T09:46:07.199Z,32.40
2022-08-31T09:48:44.495Z,32.50
2022-08-31T09:51:22.460Z,32.60
2022-08-31T09:54:10.576Z,32.70
2022-08-31T09:56:55.235Z,32.80
2022-08-31T09:59:41.914Z,32.80
2022-08-31T10:02:13.371Z,32.70
2022-08-31T10:04:52.415Z,32.70
2022-08-31T10:07:37.703Z,32.50
2022-08-31T10:10:28.062Z,32.60
2022-08-31T10:13:03.682Z,32.40
2022-08-31T10:15:41.162Z,32.20
2022-08-31T10:18:15.234Z,32.40
2022-08-31T10:20:51.663Z,32.50
2022-08-31T10:23:27.957Z,32.50
2022-08-31T10:25:59.977Z,32.50
2022-08-31T10:28:33.818Z,32.40
2022-08-31T10:31:04.904Z,32.40
2022-08-31T10:33:54.678Z,32.30
2022-08-31T10:36:31.057Z,32.40
2022-08-31T10:38:59.152Z,32.50
2022-08-31T10:41:30.823Z,32.50
2022-08-31T10:44:04.294Z,32.60
2022-08-31T10:46:35.580Z,32.70
2022-08-31T10:49:05.258Z,32.70
2022-08-31T10:51:46.245Z,32.80
2022-08-31T10:54:28.675Z,32.70
2022-08-31T10:57:07.731Z,32.70
2022-08-31T10:59:45.951Z,32.70
2022-08-31T11:02:44.017Z,32.70
2022-08-31T11:05:30.160Z,32.90
2022-08-31T11:08:10.804Z,33.00
2022-08-31T11:10:47.118Z,32.90
2022-08-31T11:13:31.164Z,33.00
2022-08-31T11:16:27.709Z,32.90
2022-08-31T11:19:36.515Z,33.00
2022-08-31T11:22:40.931Z,32.90
2022-08-31T11:25:58.522Z,32.80
2022-08-31T11:28:33.910Z,32.90
2022-08-31T11:31:07.390Z,32.60
2022-08-31T11:33:37.473Z,32.70
2022-08-31T11:36:09.995Z,32.80
2022-08-31T11:39:26.847Z,32.80
2022-08-31T11:41:56.245Z,32.80
2022-08-31T11:45:06.963Z,32.90
2022-08-31T11:47:43.385Z,33.00
2022-08-31T11:50:33.993Z,32.70
2022-08-31T11:53:20.739Z,32.80
2022-08-31T11:55:52.513Z,32.90
2022-08-31T11:58:35.049Z,33.10
2022-08-31T12:01:33.775Z,33.40
2022-08-31T12:04:06.550Z,33.50
2022-08-31T12:07:08.959Z,33.30
2022-08-31T12:10:16.722Z,33.30
2022-08-31T12:12:58.398Z,33.40
2022-08-31T12:15:38.979Z,33.50
2022-08-31T12:18:17.301Z,33.50
2022-08-31T12:21:14.727Z,33.60
2022-08-31T12:23:57.604Z,33.60
2022-08-31T12:26:52.862Z,33.60
2022-08-31T12:29:25.210Z,33.60
2022-08-31T12:32:11.298Z,33.80
2022-08-31T12:34:43.655Z,33.60
2022-08-31T12:37:30.102Z,33.50
2022-08-31T12:40:25.409Z,33.90
2022-08-31T12:43:01.125Z,34.00
2022-08-31T12:45:58.963Z,34.00
2022-08-31T12:48:53.024Z,34.00
2022-08-31T12:51:35.877Z,33.70
2022-08-31T12:54:42.821Z,33.90
2022-08-31T12:57:27.109Z,33.90
2022-08-31T13:00:03.119Z,34.10
2022-08-31T13:02:33.895Z,34.20
2022-08-31T13:05:14.990Z,34.20
2022-08-31T13:07:42.998Z,34.40
2022-08-31T13:10:13.976Z,34.30
2022-08-31T13:12:49.889Z,34.30
2022-08-31T13:15:26.060Z,34.60
2022-08-31T13:17:54.994Z,34.50
2022-08-31T13:20:44.218Z,34.20
2022-08-31T13:23:15.124Z,33.90
2022-08-31T13:25:48.441Z,34.30
2022-08-31T13:28:26.064Z,34.10
2022-08-31T13:31:03.122Z,34.00
2022-08-31T13:33:34.771Z,34.60
2022-08-31T13:36:09.803Z,34.80
2022-08-31T13:38:47.387Z,34.80
2022-08-31T13:41:23.533Z,34.70
2022-08-31T13:43:58.831Z,34.40
2022-08-31T13:46:42.440Z,34.50
2022-08-31T13:49:30.919Z,34.30
2022-08-31T13:52:01.967Z,34.10
2022-08-31T13:54:32.729Z,33.80
2022-08-31T13:57:20.532Z,33.60
2022-08-31T13:59:49.442Z,33.70
2022-08-31T14:02:37.285Z,33.60
2022-08-31T14:05:09.265Z,33.70
2022-08-31T14:08:02.127Z,33.80
2022-08-31T14:10:36.132Z,33.60
2022-08-31T14:13:11.975Z,33.80
2022-08-31T14:15:42.548Z,33.90
2022-08-31T14:18:26.087Z,33.60
2022-08-31T14:21:22.596Z,33.70
2022-08-31T14:23:54.878Z,33.80
2022-08-31T14:26:26.462Z,33.70
2022-08-31T14:29:00.093Z,33.50
2022-08-31T14:31:33.857Z,33.30
2022-08-31T14:34:22.047Z,33.40
2022-08-31T14:36:53.773Z,33.40
2022-08-31T14:39:26.650Z,33.50
2022-08-31T14:41:56.248Z,33.00
2022-08-31T14:44:30.877Z,32.90
2022-08-31T14:46:59.067Z,33.00
2022-08-31T14:49:27.302Z,33.00
2022-08-31T14:52:04.537Z,33.00
2022-08-31T14:54:37.763Z,32.90
2022-08-31T14:57:12.560Z,32.80
2022-08-31T14:59:43.710Z,32.60
2022-08-31T15:02:16.322Z,32.60
2022-08-31T15:04:46.028Z,32.70
2022-08-31T15:07:15.711Z,32.80
2022-08-31T15:09:50.155Z,32.60
2022-08-31T15:12:18.531Z,32.60
2022-08-31T15:14:47.240Z,32.70
2022-08-31T15:17:18.912Z,32.80
2022-08-31T15:19:50.145Z,32.70
2022-08-31T15:22:19.204Z,32.60
2022-08-31T15:24:50.175Z,32.80
2022-08-31T15:27:18.533Z,32.80
2022-08-31T15:29:49.478Z,32.90
2022-08-31T15:32:18.610Z,33.00
2022-08-31T15:34:53.496Z,33.10
2022-08-31T15:37:22.482Z,33.20
2022-08-31T15:39:51.931Z,33.00
2022-08-31T15:42:21.313Z,33.10
2022-08-31T15:44:55.927Z,33.10
2022-08-31T15:47:42.773Z,32.70
2022-08-31T15:50:10.896Z,32.40
2022-08-31T15:52:42.105Z,32.60
2022-08-31T15:55:12.411Z,32.60
2022-08-31T15:57:40.646Z,32.50
2022-08-31T16:00:13.620Z,32.60
2022-08-31T16:02:42.099Z,32.50
2022-08-31T16:05:11.776Z,32.60
2022-08-31T16:07:40.606Z,32.60
2022-08-31T16:10:19.732Z,32.60
2022-08-31T16:12:50.356Z,32.60
2022-08-31T16:15:22.254Z,32.40
2022-08-31T16:17:57.461Z,32.40
2022-08-31T16:20:28.834Z,32.30
2022-08-31T16:22:58.905Z,32.40
2022-08-31T16:25:36.545Z,32.40
2022-08-31T16:28:21.650Z,32.50
2022-08-31T16:30:52.205Z,32.40
2022-08-31T16:33:21.675Z,32.60
2022-08-31T16:35:53.675Z,32.70
2022-08-31T16:38:21.898Z,32.80
2022-08-31T16:41:14.524Z,32.70
2022-08-31T16:43:48.926Z,32.70
2022-08-31T16:46:42.437Z,32.80
2022-08-31T16:49:29.566Z,32.80
2022-08-31T16:51:58.302Z,32.80
2022-08-31T16:54:28.559Z,32.80
2022-08-31T16:56:58.498Z,32.80
2022-08-31T16:59:30.809Z,32.60
2022-08-31T17:02:00.326Z,32.50
2022-08-31T17:04:51.050Z,32.60
2022-08-31T17:07:18.956Z,32.60
2022-08-31T17:09:47.814Z,32.60
2022-08-31T17:12:27.604Z,32.60
2022-08-31T17:14:56.077Z,32.50
2022-08-31T17:17:26.347Z,32.40
2022-08-31T17:19:56.343Z,32.40
2022-08-31T17:22:32.647Z,32.40
2022-08-31T17:25:03.627Z,32.00
2022-08-31T17:27:35.042Z,31.70
2022-08-31T17:30:07.192Z,31.80
2022-08-31T17:32:44.663Z,31.80
2022-08-31T17:35:19.116Z,31.70
2022-08-31T17:37:50.030Z,31.70
2022-08-31T17:40:18.226Z,31.50
2022-08-31T17:42:48.555Z,31.50
2022-08-31T17:45:17.453Z,31.40
2022-08-31T17:47:45.996Z,31.10
2022-08-31T17:50:21.826Z,31.10
2022-08-31T17:52:50.679Z,31.00
2022-08-31T17:55:21.017Z,30.90
2022-08-31T17:57:51.015Z,30.90
2022-08-31T18:00:20.164Z,30.90
2022-08-31T18:02:50.995Z,30.70
2022-08-31T18:05:20.197Z,30.70
2022-08-31T18:07:51.776Z,30.70
2022-08-31T18:10:26.077Z,30.50
2022-08-31T18:13:03.613Z,30.40
2022-08-31T18:15:33.105Z,30.40
2022-08-31T18:18:02.078Z,30.40
2022-08-31T18:20:33.720Z,30.30
2022-08-31T18:23:03.260Z,30.40
2022-08-31T18:25:36.863Z,30.40
2022-08-31T18:28:07.993Z,30.50
2022-08-31T18:30:40.504Z,30.40
2022-08-31T18:33:10.801Z,30.20
2022-08-31T18:35:51.062Z,30.10
2022-08-31T18:38:19.189Z,30.00
2022-08-31T18:41:05.910Z,30.20
2022-08-31T18:43:53.275Z,30.10
2022-08-31T18:46:28.504Z,30.00
2022-08-31T18:49:01.053Z,30.20
2022-08-31T18:51:36.870Z,30.20
2022-08-31T18:54:06.462Z,30.20
2022-08-31T18:56:36.395Z,30.10
2022-08-31T18:59:06.425Z,30.00
2022-08-31T19:01:35.032Z,30.10
2022-08-31T19:04:04.780Z,30.10
2022-08-31T19:06:33.379Z,30.10
2022-08-31T19:09:04.237Z,30.10
2022-08-31T19:11:33.984Z,30.00
2022-08-31T19:14:03.277Z,30.10
2022-08-31T19:16:43.077Z,29.90
2022-08-31T19:19:11.958Z,29.80
2022-08-31T19:21:41.164Z,29.70
2022-08-31T19:24:13.515Z,29.50
2022-08-31T19:26:46.067Z,29.40
2022-08-31T19:29:16.282Z,29.40
2022-08-31T19:31:51.314Z,29.40
2022-08-31T19:34:23.157Z,29.40
2022-08-31T19:36:54.624Z,29.50
2022-08-31T19:39:25.533Z,29.60
2022-08-31T19:41:57.764Z,29.60
2022-08-31T19:44:28.073Z,29.60
2022-08-31T19:46:59.078Z,29.40
2022-08-31T19:49:33.854Z,29.40
2022-08-31T19:52:06.819Z,29.30
2022-08-31T19:54:41.661Z,29.20
2022-08-31T19:57:16.300Z,29.10
2022-08-31T19:59:46.720Z,29.10
2022-08-31T20:02:19.684Z,29.10
2022-08-31T20:04:47.801Z,29.10
2022-08-31T20:07:17.022Z,29.00
2022-08-31T20:09:46.930Z,29.00
2022-08-31T20:12:15.026Z,28.80
2022-08-31T20:14:44.947Z,28.70
2022-08-31T20:17:13.075Z,28.70
2022-08-31T20:19:42.740Z,28.70
2022-08-31T20:22:13.459Z,28.70
2022-08-31T20:24:45.011Z,28.70
2022-08-31T20:27:18.507Z,28.70
2022-08-31T20:29:49.457Z,28.70
2022-08-31T20:32:19.043Z,28.60
2022-08-31T20:34:52.971Z,28.60
2022-08-31T20:37:20.981Z,28.50
2022-08-31T20:39:49.036Z,28.30
2022-08-31T20:42:21.914Z,28.30
2022-08-31T20:44:55.296Z,28.40
2022-08-31T20:47:41.178Z,28.20
2022-08-31T20:50:11.786Z,28.20
2022-08-31T20:52:40.226Z,28.20
2022-08-31T20:55:45.066Z,28.20
2022-08-31T20:58:14.944Z,28.40
2022-08-31T21:00:48.423Z,28.40
2022-08-31T21:03:16.727Z,28.50
2022-08-31T21:05:46.211Z,28.40
2022-08-31T21:08:17.120Z,28.60
2022-08-31T21:10:45.136Z,28.70
2022-08-31T21:13:14.593Z,28.60
2022-08-31T21:15:44.521Z,28.50
2022-08-31T21:18:17.250Z,28.40
2022-08-31T21:20:51.501Z,28.30
2022-08-31T21:23:19.669Z,28.20
2022-08-31T21:25:49.049Z,28.30
2022-08-31T21:28:18.510Z,28.40
2022-08-31T21:30:49.320Z,28.50
2022-08-31T21:33:17.746Z,28.50
2022-08-31T21:35:48.961Z,28.70
2022-08-31T21:38:18.533Z,28.60
2022-08-31T21:40:51.785Z,28.70
2022-08-31T21:43:20.979Z,28.70
2022-08-31T21:46:00.433Z,28.70
2022-08-31T21:48:29.288Z,28.60
2022-08-31T21:50:59.220Z,28.80
2022-08-31T21:53:27.479Z,28.70
2022-08-31T21:55:56.561Z,28.80
2022-08-31T21:58:24.613Z,28.70
2022-08-31T22:00:52.668Z,28.60
2022-08-31T22:03:23.494Z,28.60
2022-08-31T22:05:53.225Z,28.70
2022-08-31T22:08:26.021Z,28.60
2022-08-31T22:10:55.750Z,28.70
2022-08-31T22:13:26.427Z,28.80
2022-08-31T22:15:57.882Z,28.80
2022-08-31T22:18:59.586Z,28.80
2022-08-31T22:21:18.476Z,28.70
2022-08-31T22:23:49.822Z,28.60
2022-08-31T22:26:19.095Z,28.50
2022-08-31T22:28:48.245Z,28.40
2022-08-31T22:31:20.928Z,28.50
2022-08-31T22:33:54.141Z,28.60
2022-08-31T22:36:31.210Z,28.70
2022-08-31T22:39:06.587Z,28.70
2022-08-31T22:41:37.971Z,28.60
2022-08-31T22:44:10.457Z,28.60
2022-08-31T22:46:42.489Z,28.70
2022-08-31T22:49:13.528Z,28.60
2022-08-31T22:51:49.866Z,28.50
2022-08-31T22:54:22.435Z,28.60
2022-08-31T22:56:53.027Z,28.50
2022-08-31T22:59:30.732Z,28.50
2022-08-31T23:02:03.835Z,28.70
2022-08-31T23:04:39.545Z,28.50
2022-08-31T23:07:23.526Z,28.60
2022-08-31T23:09:59.476Z,28.60
2022-08-31T23:12:30.997Z,28.60
2022-08-31T23:15:00.412Z,28.60
2022-08-31T23:17:29.406Z,28.60
2022-08-31T23:19:57.461Z,28.60
2022-08-31T23:22:25.526Z,28.50
2022-08-31T23:24:59.742Z,28.50
2022-08-31T23:27:28.404Z,28.60
2022-08-31T23:29:57.983Z,28.50
2022-08-31T23:32:29.036Z,28.50
2022-08-31T23:34:59.057Z,28.50
2022-08-31T23:37:28.026Z,28.50
2022-08-31T23:39:58.994Z,28.40
2022-08-31T23:42:29.367Z,28.30
2022-08-31T23:44:58.887Z,28.30
2022-08-31T23:47:28.984Z,28.40
2022-08-31T23:49:59.070Z,28.40
2022-08-31T23:52:29.488Z,28.40
2022-08-31T23:55:00.347Z,28.20
2022-08-31T23:57:32.369Z,28.20
